createdAt,value
2024-01-24T00:01:46.221Z,67.45
2024-01-24T00:04:46.279Z,66.99
2024-01-24T00:07:45.698Z,68.64
2024-01-24T00:10:45.674Z,68.77
2024-01-24T00:12:45.709Z,69.14
2024-01-24T00:15:45.890Z,68.18
2024-01-24T00:18:46.756Z,66.41
2024-01-24T00:21:45.848Z,69.16
2024-01-24T00:24:45.770Z,67.26
2024-01-24T00:26:45.708Z,69.23
2024-01-24T00:29:46.587Z,68.96
2024-01-24T00:32:46.571Z,68.86
2024-01-24T00:35:45.682Z,67.96
2024-01-24T00:37:45.833Z,69.34
2024-01-24T00:40:45.700Z,67.65
2024-01-24T00:42:46.242Z,69.38
2024-01-24T00:44:46.253Z,69.35
2024-01-24T00:47:45.942Z,69.12
2024-01-24T00:49:46.381Z,69.5
2024-01-24T00:52:45.334Z,69.56
2024-01-24T00:54:45.899Z,68.88
2024-01-24T00:57:45.763Z,69.28
2024-01-24T00:59:46.135Z,69.04
2024-01-24T01:02:45.661Z,69.32
2024-01-24T01:04:45.881Z,69.36
2024-01-24T01:06:45.927Z,68.44
2024-01-24T01:09:45.864Z,69.2
2024-01-24T01:12:45.691Z,69.51
2024-01-24T01:15:46.356Z,69.25
2024-01-24T01:18:46.471Z,68.75
2024-01-24T01:21:48.031Z,67.96
2024-01-24T01:24:46.445Z,68.38
2024-01-24T01:27:46.549Z,68.71
2024-01-24T01:30:45.702Z,68.89
2024-01-24T01:33:46.185Z,68.73
2024-01-24T01:35:45.685Z,69.07
2024-01-24T01:38:45.816Z,68.82
2024-01-24T01:40:46.758Z,67.88
2024-01-24T01:43:45.695Z,68.4
2024-01-24T01:45:45.937Z,67.52
2024-01-24T01:48:45.790Z,68.58
2024-01-24T01:50:46.762Z,68.48
2024-01-24T01:53:45.687Z,69
2024-01-24T01:56:45.737Z,68.03
2024-01-24T01:59:45.681Z,68.72
2024-01-24T02:02:46.254Z,68.28
2024-01-24T02:04:46.227Z,68.09
2024-01-24T02:07:46.421Z,68.96
2024-01-24T02:10:45.773Z,69.3
2024-01-24T02:13:45.873Z,69.09
2024-01-24T02:16:45.688Z,68.34
2024-01-24T02:18:46.617Z,68.67
2024-01-24T02:21:45.699Z,68.39
2024-01-24T02:23:45.995Z,68.39
2024-01-24T02:26:46.314Z,69.26
2024-01-24T02:29:45.666Z,68.75
2024-01-24T02:32:45.925Z,69.15
2024-01-24T02:35:45.685Z,68.21
2024-01-24T02:38:46.158Z,68.12
2024-01-24T02:41:45.724Z,69.92
2024-01-24T02:44:45.741Z,69.78
2024-01-24T02:46:46.110Z,69.83
2024-01-24T02:49:45.820Z,69.2
2024-01-24T02:52:45.671Z,68.74
2024-01-24T02:55:45.685Z,69.44
2024-01-24T02:57:46.497Z,69.87
2024-01-24T03:00:45.738Z,68.8
2024-01-24T03:02:45.874Z,69.59
2024-01-24T03:04:46.462Z,70.54
2024-01-24T03:06:46.634Z,69.38
2024-01-24T03:09:45.738Z,68.69
2024-01-24T03:11:46.414Z,69.81
2024-01-24T03:14:46.447Z,69.65
2024-01-24T03:17:45.723Z,69.5
2024-01-24T03:19:46.910Z,69.77
2024-01-24T03:22:45.882Z,69.23
2024-01-24T03:24:45.978Z,69.07
2024-01-24T03:27:45.908Z,69.64
2024-01-24T03:30:45.700Z,70.48
2024-01-24T03:32:45.994Z,70.18
2024-01-24T03:34:46.224Z,70.82
2024-01-24T03:37:46.029Z,69.98
2024-01-24T03:40:45.812Z,69.34
2024-01-24T03:43:46.174Z,70.51
2024-01-24T03:46:46.223Z,70.22
2024-01-24T03:48:46.669Z,70.02
2024-01-24T03:51:46.245Z,69.22
2024-01-24T03:54:45.751Z,70.48
2024-01-24T03:57:45.759Z,69.75
2024-01-24T03:59:45.689Z,69.84
2024-01-24T04:01:45.829Z,69.63
2024-01-24T04:04:45.701Z,72.01
2024-01-24T04:06:46.630Z,71.18
2024-01-24T04:09:46.636Z,71.29
2024-01-24T04:12:45.911Z,71.03
2024-01-24T04:15:45.838Z,70.41
2024-01-24T04:17:46.082Z,72.68
2024-01-24T04:20:46.173Z,72.23
2024-01-24T04:22:46.299Z,71.93
2024-01-24T04:25:45.688Z,68.31
2024-01-24T04:28:45.672Z,70.83
2024-01-24T04:31:45.990Z,70.72
2024-01-24T04:33:46.284Z,72.28
2024-01-24T04:36:46.336Z,71.55
2024-01-24T04:39:46.026Z,72.58
2024-01-24T04:41:46.444Z,72.1
2024-01-24T04:44:45.913Z,70.43
2024-01-24T04:47:45.905Z,71.97
2024-01-24T04:50:46.313Z,71.25
2024-01-24T04:52:46.559Z,68.86
2024-01-24T04:55:45.680Z,70.15
2024-01-24T04:57:45.714Z,72.02
2024-01-24T05:00:46.513Z,70.9
2024-01-24T05:03:46.111Z,71.17
2024-01-24T05:06:45.819Z,70.75
2024-01-24T05:09:45.720Z,70.19
2024-01-24T05:11:46.322Z,70.62
2024-01-24T05:13:46.351Z,69.74
2024-01-24T05:16:45.882Z,70.49
2024-01-24T05:19:45.715Z,71.31
2024-01-24T05:21:45.970Z,71.37
2024-01-24T05:24:45.792Z,72.14
2024-01-24T05:27:45.710Z,71.24
2024-01-24T05:30:45.714Z,72.94
2024-01-24T05:32:46.144Z,73.45
2024-01-24T05:34:46.532Z,71.44
2024-01-24T05:37:46.463Z,73.86
2024-01-24T05:40:45.757Z,69.79
2024-01-24T05:43:45.728Z,71.84
2024-01-24T05:46:45.696Z,72.73
2024-01-24T05:48:46.380Z,73.3
2024-01-24T05:51:45.715Z,72.85
2024-01-24T05:53:45.725Z,71.51
2024-01-24T05:55:45.726Z,71.91
2024-01-24T05:57:46.013Z,73.19
2024-01-24T06:00:45.737Z,73.52
2024-01-24T06:02:45.855Z,72.7
2024-01-24T06:05:45.733Z,72.92
2024-01-24T06:07:46.450Z,72.14
2024-01-24T06:09:46.611Z,72.58
2024-01-24T06:12:45.833Z,73.08
2024-01-24T06:15:45.765Z,71.58
2024-01-24T06:17:45.713Z,72.48
2024-01-24T06:19:45.930Z,72.14
2024-01-24T06:22:46.359Z,73.21
2024-01-24T06:24:46.564Z,72.58
2024-01-24T06:27:45.771Z,71.94
2024-01-24T06:30:13.706Z,72.25
2024-01-24T06:32:45.718Z,72.71
2024-01-24T06:34:45.767Z,71.69
2024-01-24T06:36:45.760Z,72.22
2024-01-24T06:39:45.723Z,69.9
2024-01-24T06:41:46.213Z,73.16
2024-01-24T06:44:45.929Z,72.17
2024-01-24T06:47:45.700Z,71.17
2024-01-24T06:50:45.693Z,69.92
2024-01-24T06:52:46.094Z,73.23
2024-01-24T06:54:46.157Z,72.8
2024-01-24T06:57:45.773Z,71.64
2024-01-24T06:59:46.656Z,73.42
2024-01-24T07:02:46.182Z,74.07
2024-01-24T07:04:46.394Z,73.98
2024-01-24T07:07:46.219Z,73.99
2024-01-24T07:10:45.711Z,73.57
2024-01-24T07:12:47.225Z,73.55
2024-01-24T07:15:45.787Z,73.77
2024-01-24T07:18:45.786Z,72.27
2024-01-24T07:20:46.941Z,74.55
2024-01-24T07:23:45.703Z,73.66
2024-01-24T07:25:46.220Z,74.78
2024-01-24T07:27:46.423Z,74.01
2024-01-24T07:29:46.350Z,73.63
2024-01-24T07:32:46.241Z,73.63
2024-01-24T07:35:45.696Z,74.2
2024-01-24T07:38:45.835Z,71.86
2024-01-24T07:41:46.069Z,74.02
2024-01-24T07:43:46.219Z,73.46
2024-01-24T07:46:45.710Z,75.57
2024-01-24T07:49:45.919Z,74.65
2024-01-24T07:52:46.499Z,71.38
2024-01-24T07:55:51.149Z,74.72
2024-01-24T07:58:45.739Z,74.71
2024-01-24T08:00:45.776Z,72.91
2024-01-24T08:02:45.696Z,73.74
2024-01-24T08:05:45.794Z,73.86
2024-01-24T08:07:46.372Z,72.59
2024-01-24T08:09:47.198Z,73.72
2024-01-24T08:12:46.028Z,72.61
2024-01-24T08:14:46.526Z,72.55
2024-01-24T08:17:46.255Z,73.49
2024-01-24T08:19:46.678Z,73.62
2024-01-24T08:22:45.696Z,73.76
2024-01-24T08:25:45.744Z,72.53
2024-01-24T08:27:46.139Z,72.13
2024-01-24T08:29:46.146Z,75.57
2024-01-24T08:32:46.140Z,72.26
2024-01-24T08:35:45.698Z,76.58
2024-01-24T08:37:46.692Z,74.6
2024-01-24T08:40:45.717Z,75.49
2024-01-24T08:42:46.585Z,75.98
2024-01-24T08:45:47.969Z,75.8
2024-01-24T08:48:46.523Z,75.8
2024-01-24T08:51:45.852Z,74.37
2024-01-24T08:53:45.681Z,73.91
2024-01-24T08:55:46.357Z,74.97
2024-01-24T08:58:45.730Z,75.96
2024-01-24T09:00:45.747Z,73.97
2024-01-24T09:02:45.698Z,74.64
2024-01-24T09:04:45.874Z,75.18
2024-01-24T09:07:46.308Z,73.19
2024-01-24T09:09:46.469Z,72.04
2024-01-24T09:12:45.714Z,74.13
2024-01-24T09:14:46.417Z,71.24
2024-01-24T09:17:45.838Z,70.95
2024-01-24T09:20:45.719Z,71.83
2024-01-24T09:23:45.705Z,71.5
2024-01-24T09:25:46.178Z,71.27
2024-01-24T09:28:46.261Z,70.39
2024-01-24T09:30:46.705Z,71.37
2024-01-24T09:33:46.701Z,70.87
2024-01-24T09:36:45.740Z,71.15
2024-01-24T09:38:45.725Z,70.03
2024-01-24T09:41:46.150Z,68.53
2024-01-24T09:44:45.725Z,69.66
2024-01-24T09:47:45.883Z,72.39
2024-01-24T09:49:45.979Z,70.25
2024-01-24T09:51:46.222Z,69.95
2024-01-24T09:54:46.397Z,69.59
2024-01-24T09:57:45.852Z,69.87
2024-01-24T10:00:45.815Z,70.02
2024-01-24T10:03:45.831Z,68.72
2024-01-24T10:05:46.609Z,67.66
2024-01-24T10:08:46.194Z,68.75
2024-01-24T10:11:45.690Z,68.17
2024-01-24T10:14:45.135Z,67.14
2024-01-24T10:16:45.735Z,67.44
2024-01-24T10:18:46.309Z,67.1
2024-01-24T10:21:45.714Z,67.07
2024-01-24T10:23:46.587Z,66.31
2024-01-24T10:25:46.497Z,65.58
2024-01-24T10:28:46.247Z,65.99
2024-01-24T10:31:46.157Z,66.3
2024-01-24T10:33:46.228Z,65.82
2024-01-24T10:36:46.583Z,65.39
2024-01-24T10:39:46.388Z,64.65
2024-01-24T10:42:46.304Z,64.04
2024-01-24T10:44:46.305Z,64.02
2024-01-24T10:46:46.319Z,64.04
2024-01-24T10:50:46.517Z,63.29
2024-01-24T10:53:46.144Z,62.33
2024-01-24T10:56:45.709Z,62.25
2024-01-24T10:58:46.203Z,62.2
2024-01-24T11:01:45.775Z,61.35
2024-01-24T11:03:46.653Z,61.68
2024-01-24T11:06:45.885Z,60.58
2024-01-24T11:08:47.334Z,60.24
2024-01-24T11:11:46.073Z,59.84
2024-01-24T11:13:46.477Z,59.56
2024-01-24T11:16:45.733Z,58.42
2024-01-24T11:19:46.073Z,58.09
2024-01-24T11:22:46.820Z,58.19
2024-01-24T11:25:46.081Z,57.61
2024-01-24T11:28:45.716Z,57.54
2024-01-24T11:30:45.711Z,56.39
2024-01-24T11:32:46.113Z,56.93
2024-01-24T11:34:46.256Z,56.49
2024-01-24T11:36:46.412Z,56.33
2024-01-24T11:39:45.718Z,55.42
2024-01-24T11:41:46.449Z,55.05
2024-01-24T11:44:46.220Z,54.67
2024-01-24T11:47:45.847Z,54.37
2024-01-24T11:49:45.805Z,54.75
2024-01-24T11:51:45.776Z,54.72
2024-01-24T11:54:45.759Z,54.37
2024-01-24T11:57:46.140Z,54.69
2024-01-24T12:00:45.746Z,55.66
2024-01-24T12:02:46.687Z,56
2024-01-24T12:04:46.143Z,56.15
2024-01-24T12:07:45.732Z,56.16
2024-01-24T12:09:46.087Z,56.65
2024-01-24T12:12:46.330Z,57.06
2024-01-24T12:15:45.789Z,57.47
2024-01-24T12:17:46.306Z,57.18
2024-01-24T12:20:45.718Z,56.9
2024-01-24T12:22:46.261Z,56.28
2024-01-24T12:25:46.230Z,55.98
2024-01-24T12:28:46.393Z,56.08
2024-01-24T12:31:45.690Z,55.73
2024-01-24T12:33:46.649Z,55.74
2024-01-24T12:36:46.724Z,55.65
2024-01-24T12:39:46.454Z,55.72
2024-01-24T12:42:45.850Z,55.46
2024-01-24T12:45:45.720Z,55.13
2024-01-24T12:47:45.754Z,54
2024-01-24T12:50:45.783Z,53.06
2024-01-24T12:52:45.920Z,53.61
2024-01-24T12:54:46.536Z,50.74
2024-01-24T12:57:45.780Z,48.74
2024-01-24T12:59:45.997Z,48.17
2024-01-24T13:02:45.702Z,47.73
2024-01-24T13:04:45.754Z,46.78
2024-01-24T13:07:46.107Z,49.6
2024-01-24T13:10:46.397Z,46.1
2024-01-24T13:12:46.264Z,44.57
2024-01-24T13:14:46.408Z,44.72
2024-01-24T13:17:46.067Z,45.34
2024-01-24T13:19:46.368Z,46.63
2024-01-24T13:22:45.766Z,47.07
2024-01-24T13:25:46.341Z,46.76
2024-01-24T13:28:45.882Z,46.31
2024-01-24T13:31:45.936Z,45.34
2024-01-24T13:33:45.751Z,44.83
2024-01-24T13:36:45.949Z,48.41
2024-01-24T13:41:45.852Z,45.32
2024-01-24T13:43:46.142Z,44.8
2024-01-24T13:45:46.433Z,45.49
2024-01-24T13:48:45.896Z,45.73
2024-01-24T13:50:46.461Z,45.95
2024-01-24T13:53:45.730Z,44.2
2024-01-24T13:55:45.723Z,44.43
2024-01-24T13:57:46.426Z,44.84
2024-01-24T14:00:45.859Z,45.07
2024-01-24T14:02:46.106Z,44.19
2024-01-24T14:05:45.812Z,43.95
2024-01-24T14:07:45.844Z,44.29
2024-01-24T14:10:45.736Z,44.57
2024-01-24T14:13:45.772Z,45.39
2024-01-24T14:16:46.517Z,46.73
2024-01-24T14:18:46.708Z,46.65
2024-01-24T14:21:45.959Z,46.59
2024-01-24T14:24:45.804Z,45.95
2024-01-24T14:26:45.949Z,45.98
2024-01-24T14:28:46.583Z,46.11
2024-01-24T14:31:46.432Z,46.89
2024-01-24T14:34:45.813Z,47.28
2024-01-24T14:37:46.303Z,46.95
2024-01-24T14:40:45.734Z,47.05
2024-01-24T14:42:45.764Z,47.25
2024-01-24T14:44:46.319Z,46.76
2024-01-24T14:47:46.743Z,48.4
2024-01-24T14:50:47.199Z,48.46
2024-01-24T14:52:46.113Z,48.92
2024-01-24T14:55:45.734Z,49.43
2024-01-24T14:58:45.712Z,49.64
2024-01-24T15:00:45.941Z,49.74
2024-01-24T15:02:46.534Z,50.22
2024-01-24T15:05:45.765Z,52.7
2024-01-24T15:08:45.744Z,51.25
2024-01-24T15:10:45.787Z,53.27
2024-01-24T15:13:45.747Z,51.84
2024-01-24T15:15:45.810Z,51.87
2024-01-24T15:17:46.123Z,50.9
2024-01-24T15:20:49.721Z,51.25
2024-01-24T15:22:45.792Z,53.54
2024-01-24T15:24:46.107Z,50.21
2024-01-24T15:27:45.840Z,50.61
2024-01-24T15:29:46.281Z,50.04
2024-01-24T15:32:45.815Z,49.75
2024-01-24T15:34:46.696Z,49.99
2024-01-24T15:37:45.833Z,51.77
2024-01-24T15:40:45.743Z,49.86
2024-01-24T15:43:45.840Z,49.55
2024-01-24T15:46:45.788Z,49.73
2024-01-24T15:49:45.892Z,48.6
2024-01-24T15:52:45.758Z,49.96
2024-01-24T15:54:46.322Z,50.1
2024-01-24T15:57:45.877Z,49.74
2024-01-24T15:59:46.510Z,49.98
2024-01-24T16:02:46.395Z,50.18
2024-01-24T16:05:46.428Z,49.57
2024-01-24T16:08:46.264Z,49.78
2024-01-24T16:11:45.782Z,49.25
2024-01-24T16:14:45.929Z,49.27
2024-01-24T16:17:45.843Z,49.43
2024-01-24T16:20:46.313Z,49.75
2024-01-24T16:23:45.744Z,49.59
2024-01-24T16:26:45.948Z,49.14
2024-01-24T16:28:45.971Z,49.97
2024-01-24T16:31:45.838Z,49.82
2024-01-24T16:33:45.898Z,49.04
2024-01-24T16:35:46.092Z,49.79
2024-01-24T16:38:46.336Z,49.59
2024-01-24T16:41:46.372Z,49.31
2024-01-24T16:44:45.807Z,49.45
2024-01-24T16:47:45.926Z,49.61
2024-01-24T16:50:45.814Z,49.68
2024-01-24T16:53:45.768Z,49.63
2024-01-24T16:58:45.851Z,49.88
2024-01-24T17:01:45.761Z,50.47
2024-01-24T17:03:45.882Z,50.75
2024-01-24T17:06:46.185Z,50.6
2024-01-24T17:08:46.478Z,51.64
2024-01-24T17:11:45.825Z,50.72
2024-01-24T17:14:45.756Z,50.23
2024-01-24T17:16:45.945Z,50.21
2024-01-24T17:19:45.834Z,50.54
2024-01-24T17:22:46.227Z,50.67
2024-01-24T17:25:45.768Z,52.07
2024-01-24T17:27:45.891Z,50.38
2024-01-24T17:29:46.341Z,51.17
2024-01-24T17:32:45.807Z,51.03
2024-01-24T17:34:46.054Z,50.38
2024-01-24T17:37:46.311Z,49.91
2024-01-24T17:39:46.375Z,51.06
2024-01-24T17:42:46.434Z,51.92
2024-01-24T17:45:45.815Z,50.16
2024-01-24T17:47:45.977Z,50.93
2024-01-24T17:49:46.446Z,50.2
2024-01-24T17:52:46.133Z,51.95
2024-01-24T17:54:46.575Z,50.47
2024-01-24T17:57:45.834Z,51.84
2024-01-24T17:59:45.770Z,51.75
2024-01-24T18:02:46.194Z,50.78
2024-01-24T18:05:45.973Z,52.37
2024-01-24T18:07:46.677Z,53.55
2024-01-24T18:10:45.786Z,51.78
2024-01-24T18:13:45.895Z,53.38
2024-01-24T18:16:46.245Z,53.73
2024-01-24T18:19:46.890Z,53.3
2024-01-24T18:22:45.720Z,53.33
2024-01-24T18:24:46.533Z,53.44
2024-01-24T18:27:45.794Z,53.2
2024-01-24T18:29:46.657Z,53.86
2024-01-24T18:32:46.599Z,53.73
2024-01-24T18:35:45.773Z,53.93
2024-01-24T18:38:45.778Z,54.23
2024-01-24T18:41:45.737Z,53.66
2024-01-24T18:44:45.762Z,53.23
2024-01-24T18:46:46.229Z,54.54
2024-01-24T18:49:46.397Z,54.5
2024-01-24T18:52:45.726Z,53
2024-01-24T18:54:46.416Z,53.72
2024-01-24T18:57:45.807Z,54.24
2024-01-24T18:59:45.742Z,54.4
2024-01-24T19:01:45.824Z,54.45
2024-01-24T19:03:46.685Z,54.65
2024-01-24T19:06:46.693Z,55.57
2024-01-24T19:09:45.756Z,54.98
2024-01-24T19:11:46.203Z,54.88
2024-01-24T19:14:45.759Z,55.28
2024-01-24T19:16:45.849Z,56.31
2024-01-24T19:18:45.835Z,55.44
2024-01-24T19:20:45.775Z,56.03
2024-01-24T19:23:45.757Z,55.93
2024-01-24T19:25:45.831Z,55.97
2024-01-24T19:27:46.814Z,56.21
2024-01-24T19:30:45.999Z,56.2
2024-01-24T19:33:46.435Z,56.36
2024-01-24T19:36:45.804Z,56.53
2024-01-24T19:38:45.939Z,56.43
2024-01-24T19:41:46.291Z,56.68
2024-01-24T19:44:45.785Z,56.42
2024-01-24T19:47:45.785Z,56.52
2024-01-24T19:50:45.750Z,56.38
2024-01-24T19:52:45.816Z,56.2
2024-01-24T19:54:46.215Z,56.35
2024-01-24T19:57:45.773Z,56.44
2024-01-24T19:59:46.159Z,56.04
2024-01-24T20:01:46.273Z,55.75
2024-01-24T20:03:46.311Z,55.86
2024-01-24T20:06:45.897Z,56.07
2024-01-24T20:08:45.767Z,55.86
2024-01-24T20:11:45.768Z,55.85
2024-01-24T20:14:45.764Z,55.77
2024-01-24T20:17:45.821Z,55.87
2024-01-24T20:19:46.000Z,56.04
2024-01-24T20:21:46.049Z,56.4
2024-01-24T20:23:46.468Z,56.18
2024-01-24T20:26:45.781Z,55.78
2024-01-24T20:29:48.279Z,55.75
2024-01-24T20:31:46.661Z,55.7
2024-01-24T20:34:45.818Z,55.5
2024-01-24T20:37:46.113Z,55.31
2024-01-24T20:41:46.363Z,55.55
2024-01-24T20:44:45.984Z,56.29
2024-01-24T20:46:46.238Z,55.48
2024-01-24T20:49:45.813Z,56.02
2024-01-24T20:51:45.869Z,55.7
2024-01-24T20:54:45.806Z,55.87
2024-01-24T20:56:46.100Z,55.55
2024-01-24T20:59:46.748Z,55.84
2024-01-24T21:01:45.840Z,55.59
2024-01-24T21:04:45.861Z,56.31
2024-01-24T21:06:46.392Z,55.8
2024-01-24T21:09:45.808Z,56.27
2024-01-24T21:12:45.803Z,56.62
2024-01-24T21:14:45.747Z,56.57
2024-01-24T21:17:45.802Z,56.6
2024-01-24T21:19:46.389Z,56.55
2024-01-24T21:21:46.622Z,56.69
2024-01-24T21:24:45.779Z,56.43
2024-01-24T21:26:45.777Z,56.96
2024-01-24T21:28:46.260Z,56.76
2024-01-24T21:31:45.801Z,57.14
2024-01-24T21:33:46.763Z,57.36
2024-01-24T21:36:47.949Z,57.95
2024-01-24T21:38:45.771Z,57.84
2024-01-24T21:40:45.771Z,57.68
2024-01-24T21:43:45.857Z,58.28
2024-01-24T21:46:46.524Z,58.45
2024-01-24T21:49:45.866Z,58.52
2024-01-24T21:52:46.563Z,58.24
2024-01-24T21:55:46.417Z,58.34
2024-01-24T21:58:45.781Z,58.69
2024-01-24T22:00:45.877Z,58.84
2024-01-24T22:02:45.798Z,59.21
2024-01-24T22:04:46.691Z,58.98
2024-01-24T22:07:45.791Z,59.28
2024-01-24T22:09:45.832Z,59.12
2024-01-24T22:11:46.539Z,59.39
2024-01-24T22:14:45.807Z,59.46
2024-01-24T22:16:46.261Z,59.8
2024-01-24T22:18:47.805Z,59.87
2024-01-24T22:20:46.925Z,59.88
2024-01-24T22:23:45.771Z,59.88
2024-01-24T22:26:45.783Z,59.87
2024-01-24T22:28:46.004Z,59.82
2024-01-24T22:31:45.960Z,60.1
2024-01-24T22:33:46.097Z,60.09
2024-01-24T22:35:46.525Z,60.22
2024-01-24T22:38:45.777Z,60.32
2024-01-24T22:40:46.189Z,60.52
2024-01-24T22:43:45.820Z,60.55
2024-01-24T22:45:45.851Z,60.73
2024-01-24T22:47:46.064Z,60.82
2024-01-24T22:50:45.770Z,60.72
2024-01-24T22:52:45.771Z,60.7
2024-01-24T22:55:45.742Z,60.48
2024-01-24T22:57:45.871Z,60.9
2024-01-24T23:00:45.825Z,60.45
2024-01-24T23:03:46.410Z,60.83
2024-01-24T23:06:45.919Z,60.66
2024-01-24T23:08:45.750Z,60.8
2024-01-24T23:10:45.816Z,60.85
2024-01-24T23:13:45.795Z,60.72
2024-01-24T23:15:45.896Z,60.71
2024-01-24T23:18:46.053Z,60.9
2024-01-24T23:21:45.851Z,60.9
2024-01-24T23:24:46.096Z,60.92
2024-01-24T23:26:46.357Z,60.59
2024-01-24T23:29:45.795Z,60.67
2024-01-24T23:31:46.584Z,60.65
2024-01-24T23:34:46.414Z,60.6
2024-01-24T23:37:46.339Z,60.77
2024-01-24T23:40:45.799Z,60.78
2024-01-24T23:43:45.757Z,60.63
2024-01-24T23:45:46.545Z,60.87
2024-01-24T23:48:50.928Z,60.43
2024-01-24T23:50:46.155Z,60.66
2024-01-24T23:53:45.760Z,60.54
2024-01-24T23:55:45.805Z,60.45
2024-01-24T23:57:45.829Z,60.19
